Terminal Aerodrome Forecast
Issued by NWS Duluth, MN

Home | Current Version | Previous Version | Text Only | Print | Product List | Glossary On
Versions: 1 2 3 4 5 6 7 8 9 10 11 12 13 14 15 16 17 18 19 20 21 22 23 24 25 26 27
000
FTUS43 KDLH 242300
TAFDLH
TAF
KDLH 242337Z 2500/2524 34014G22KT 5SM -SN BLSN OVC019
     FM250500 33013KT P6SM SCT018 BKN050
     FM251000 31009KT P6SM FEW015 SCT040
     FM251700 22005KT P6SM BKN040=

USA.gov is the U.S. government's official web portal to all federal, state and local government web resources and services.